sensor_id;sensor_type;location;lat;lon;timestamp;pressure;altitude;pressure_sealevel;temperature;humidity
9277;BME280;4676;42.678;23.244;2023-03-14T00:01:50;94288.22;;;1.86;100.00
9277;BME280;4676;42.678;23.244;2023-03-14T00:04:17;94277.41;;;1.81;100.00
9277;BME280;4676;42.678;23.244;2023-03-14T00:06:43;94285.72;;;1.86;100.00
9277;BME280;4676;42.678;23.244;2023-03-14T00:09:12;94274.94;;;1.78;100.00
9277;BME280;4676;42.678;23.244;2023-03-14T00:11:40;94277.41;;;1.76;100.00
9277;BME280;4676;42.678;23.244;2023-03-14T00:14:07;94244.19;;;1.59;100.00
9277;BME280;4676;42.678;23.244;2023-03-14T00:16:33;94271.56;;;1.80;100.00
9277;BME280;4676;42.678;23.244;2023-03-14T00:19:00;94271.56;;;1.80;100.00
9277;BME280;4676;42.678;23.244;2023-03-14T00:21:27;94264.91;;;1.85;100.00
9277;BME280;4676;42.678;23.244;2023-03-14T00:23:54;94254.91;;;1.85;100.00
9277;BME280;4676;42.678;23.244;2023-03-14T00:26:21;94244.91;;;1.84;100.00
9277;BME280;4676;42.678;23.244;2023-03-14T00:28:52;94233.31;;;1.75;96.87
9277;BME280;4676;42.678;23.244;2023-03-14T00:31:19;94255.66;;;2.06;93.22
9277;BME280;4676;42.678;23.244;2023-03-14T00:33:46;94248.88;;;2.23;88.81
9277;BME280;4676;42.678;23.244;2023-03-14T00:36:15;94237.94;;;2.37;85.75
9277;BME280;4676;42.678;23.244;2023-03-14T00:38:43;94237.13;;;2.38;84.21
9277;BME280;4676;42.678;23.244;2023-03-14T00:41:11;94240.53;;;2.28;83.25
9277;BME280;4676;42.678;23.244;2023-03-14T00:43:39;94237.19;;;2.26;82.96
9277;BME280;4676;42.678;23.244;2023-03-14T00:46:07;94242.13;;;2.34;81.66
9277;BME280;4676;42.678;23.244;2023-03-14T00:48:35;94240.47;;;2.34;81.42
9277;BME280;4676;42.678;23.244;2023-03-14T00:51:02;94237.22;;;2.25;82.07
9277;BME280;4676;42.678;23.244;2023-03-14T00:53:30;94233.00;;;2.25;82.70
9277;BME280;4676;42.678;23.244;2023-03-14T00:56:02;94229.78;;;2.11;83.98
9277;BME280;4676;42.678;23.244;2023-03-14T00:58:29;94230.66;;;2.06;84.07
9277;BME280;4676;42.678;23.244;2023-03-14T01:00:55;94223.19;;;1.98;85.10
9277;BME280;4676;42.678;23.244;2023-03-14T01:03:23;94231.53;;;1.97;85.04
9277;BME280;4676;42.678;23.244;2023-03-14T01:05:50;94214.16;;;1.79;85.72
9277;BME280;4676;42.678;23.244;2023-03-14T01:08:17;94229.09;;;1.89;85.44
9277;BME280;4676;42.678;23.244;2023-03-14T01:10:43;94224.88;;;1.96;84.71
9277;BME280;4676;42.678;23.244;2023-03-14T01:13:10;94221.56;;;1.92;84.14
9277;BME280;4676;42.678;23.244;2023-03-14T01:15:37;94219.06;;;1.92;82.74
9277;BME280;4676;42.678;23.244;2023-03-14T01:18:04;94215.69;;;1.99;82.59
9277;BME280;4676;42.678;23.244;2023-03-14T01:20:32;94217.38;;;1.96;82.36
9277;BME280;4676;42.678;23.244;2023-03-14T01:22:59;94209.06;;;1.92;83.38
9277;BME280;4676;42.678;23.244;2023-03-14T01:25:26;94206.56;;;1.97;83.21
9277;BME280;4676;42.678;23.244;2023-03-14T01:27:52;94208.28;;;1.86;85.37
9277;BME280;4676;42.678;23.244;2023-03-14T01:30:19;94190.06;;;1.69;88.80
9277;BME280;4676;42.678;23.244;2023-03-14T01:32:46;94186.72;;;1.67;90.63
9277;BME280;4676;42.678;23.244;2023-03-14T01:35:12;94190.06;;;1.63;91.06
9277;BME280;4676;42.678;23.244;2023-03-14T01:37:41;94185.97;;;1.54;91.17
9277;BME280;4676;42.678;23.244;2023-03-14T01:40:10;94191.75;;;1.58;89.75
9277;BME280;4676;42.678;23.244;2023-03-14T01:42:44;94191.72;;;1.67;86.35
9277;BME280;4676;42.678;23.244;2023-03-14T01:48:11;94182.56;;;1.63;85.91
9277;BME280;4676;42.678;23.244;2023-03-14T01:50:37;94159.34;;;1.50;87.11
9277;BME280;4676;42.678;23.244;2023-03-14T01:53:06;94176.81;;;1.48;89.82
9277;BME280;4676;42.678;23.244;2023-03-14T01:55:32;94171.88;;;1.35;92.82
9277;BME280;4676;42.678;23.244;2023-03-14T01:58:03;94179.38;;;1.33;95.20
9277;BME280;4676;42.678;23.244;2023-03-14T02:00:30;94174.41;;;1.27;96.57
9277;BME280;4676;42.678;23.244;2023-03-14T02:03:01;94140.38;;;0.99;97.43
9277;BME280;4676;42.678;23.244;2023-03-14T02:05:31;94174.44;;;1.15;98.05
9277;BME280;4676;42.678;23.244;2023-03-14T02:08:00;94171.97;;;1.12;98.93
9277;BME280;4676;42.678;23.244;2023-03-14T02:10:31;94166.97;;;1.06;100.00
9277;BME280;4676;42.678;23.244;2023-03-14T02:13:01;94163.63;;;1.13;100.00
9277;BME280;4676;42.678;23.244;2023-03-14T02:15:29;94126.31;;;0.87;100.00
9277;BME280;4676;42.678;23.244;2023-03-14T02:17:57;94167.00;;;1.00;100.00
9277;BME280;4676;42.678;23.244;2023-03-14T02:20:30;94167.88;;;0.91;100.00
9277;BME280;4676;42.678;23.244;2023-03-14T02:23:00;94153.75;;;0.83;100.00
9277;BME280;4676;42.678;23.244;2023-03-14T02:25:35;94164.56;;;0.83;100.00
9277;BME280;4676;42.678;23.244;2023-03-14T02:28:06;94163.72;;;0.78;100.00
9277;BME280;4676;42.678;23.244;2023-03-14T02:30:33;94167.06;;;0.73;100.00
9277;BME280;4676;42.678;23.244;2023-03-14T02:33:03;94171.22;;;0.77;100.00
9277;BME280;4676;42.678;23.244;2023-03-14T02:35:34;94124.69;;;0.53;100.00
9277;BME280;4676;42.678;23.244;2023-03-14T02:38:08;94167.88;;;0.87;100.00
9277;BME280;4676;42.678;23.244;2023-03-14T02:40:39;94162.88;;;0.87;100.00
9277;BME280;4676;42.678;23.244;2023-03-14T02:43:07;94174.50;;;0.89;100.00
9277;BME280;4676;42.678;23.244;2023-03-14T02:45:40;94152.91;;;0.78;100.00
9277;BME280;4676;42.678;23.244;2023-03-14T02:48:11;94176.16;;;1.01;100.00
9277;BME280;4676;42.678;23.244;2023-03-14T02:50:39;94176.16;;;0.99;100.00
9277;BME280;4676;42.678;23.244;2023-03-14T02:53:06;94145.41;;;0.85;100.00
9277;BME280;4676;42.678;23.244;2023-03-14T02:55:33;94169.47;;;1.03;100.00
9277;BME280;4676;42.678;23.244;2023-03-14T02:57:59;94172.00;;;0.95;100.00
9277;BME280;4676;42.678;23.244;2023-03-14T03:00:28;94173.66;;;0.96;100.00
9277;BME280;4676;42.678;23.244;2023-03-14T03:02:55;94155.41;;;0.75;100.00
9277;BME280;4676;42.678;23.244;2023-03-14T03:05:22;94167.84;;;0.93;100.00
9277;BME280;4676;42.678;23.244;2023-03-14T03:07:49;94165.38;;;0.88;100.00
9277;BME280;4676;42.678;23.244;2023-03-14T03:10:16;94168.69;;;0.81;100.00
9277;BME280;4676;42.678;23.244;2023-03-14T03:12:43;94171.22;;;0.84;100.00
9277;BME280;4676;42.678;23.244;2023-03-14T03:15:10;94168.72;;;0.78;100.00
9277;BME280;4676;42.678;23.244;2023-03-14T03:17:38;94167.91;;;0.76;100.00
9277;BME280;4676;42.678;23.244;2023-03-14T03:20:06;94167.06;;;0.71;100.00
9277;BME280;4676;42.678;23.244;2023-03-14T03:22:34;94167.09;;;0.67;100.00
9277;BME280;4676;42.678;23.244;2023-03-14T03:25:01;94164.56;;;0.64;100.00
9277;BME280;4676;42.678;23.244;2023-03-14T03:27:29;94174.56;;;0.55;100.00
9277;BME280;4676;42.678;23.244;2023-03-14T03:29:56;94167.09;;;0.53;100.00
9277;BME280;4676;42.678;23.244;2023-03-14T03:32:23;94167.13;;;0.45;100.00
9277;BME280;4676;42.678;23.244;2023-03-14T03:34:52;94164.63;;;0.44;100.00
9277;BME280;4676;42.678;23.244;2023-03-14T03:37:18;94163.78;;;0.45;100.00
9277;BME280;4676;42.678;23.244;2023-03-14T03:39:45;94164.63;;;0.45;100.00
9277;BME280;4676;42.678;23.244;2023-03-14T03:42:12;94163.78;;;0.46;100.00
9277;BME280;4676;42.678;23.244;2023-03-14T03:44:38;94165.44;;;0.58;100.00
9277;BME280;4676;42.678;23.244;2023-03-14T03:47:05;94176.25;;;0.53;100.00
9277;BME280;4676;42.678;23.244;2023-03-14T03:49:32;94169.59;;;0.48;100.00
9277;BME280;4676;42.678;23.244;2023-03-14T03:52:00;94172.91;;;0.58;100.00
9277;BME280;4676;42.678;23.244;2023-03-14T03:54:27;94167.91;;;0.66;100.00
9277;BME280;4676;42.678;23.244;2023-03-14T03:56:54;94173.72;;;0.68;100.00
9277;BME280;4676;42.678;23.244;2023-03-14T03:59:21;94138.88;;;0.37;100.00
9277;BME280;4676;42.678;23.244;2023-03-14T04:01:48;94176.25;;;0.59;100.00
9277;BME280;4676;42.678;23.244;2023-03-14T04:04:14;94178.75;;;0.56;100.00
9277;BME280;4676;42.678;23.244;2023-03-14T04:06:41;94179.56;;;0.56;100.00
9277;BME280;4676;42.678;23.244;2023-03-14T04:09:10;94177.91;;;0.52;100.00
9277;BME280;4676;42.678;23.244;2023-03-14T04:11:36;94183.69;;;0.65;100.00
9277;BME280;4676;42.678;23.244;2023-03-14T04:14:05;94173.72;;;0.74;100.00
9277;BME280;4676;42.678;23.244;2023-03-14T04:16:32;94167.09;;;0.67;100.00
9277;BME280;4676;42.678;23.244;2023-03-14T04:18:59;94166.25;;;0.68;100.00
9277;BME280;4676;42.678;23.244;2023-03-14T04:21:25;94160.44;;;0.60;100.00
9277;BME280;4676;42.678;23.244;2023-03-14T04:23:52;94148.00;;;0.44;100.00
9277;BME280;4676;42.678;23.244;2023-03-14T04:26:20;94150.47;;;0.55;100.00
9277;BME280;4676;42.678;23.244;2023-03-14T04:28:47;94152.13;;;0.55;100.00
9277;BME280;4676;42.678;23.244;2023-03-14T04:31:16;94146.34;;;0.45;100.00
9277;BME280;4676;42.678;23.244;2023-03-14T04:33:43;94143.84;;;0.40;100.00
9277;BME280;4676;42.678;23.244;2023-03-14T04:36:10;94145.53;;;0.38;100.00
9277;BME280;4676;42.678;23.244;2023-03-14T04:38:37;94136.38;;;0.45;100.00
9277;BME280;4676;42.678;23.244;2023-03-14T04:41:04;94134.69;;;0.48;100.00
9277;BME280;4676;42.678;23.244;2023-03-14T04:43:33;94130.53;;;0.43;100.00
9277;BME280;4676;42.678;23.244;2023-03-14T04:45:59;94133.88;;;0.37;100.00
9277;BME280;4676;42.678;23.244;2023-03-14T04:48:26;94124.75;;;0.33;100.00
9277;BME280;4676;42.678;23.244;2023-03-14T04:50:53;94122.25;;;0.35;100.00
9277;BME280;4676;42.678;23.244;2023-03-14T04:53:21;94122.25;;;0.33;100.00
9277;BME280;4676;42.678;23.244;2023-03-14T04:55:48;94117.25;;;0.39;100.00
9277;BME280;4676;42.678;23.244;2023-03-14T04:58:15;94119.75;;;0.36;100.00
9277;BME280;4676;42.678;23.244;2023-03-14T05:00:43;94120.56;;;0.46;100.00
9277;BME280;4676;42.678;23.244;2023-03-14T05:03:10;94120.53;;;0.73;100.00
9277;BME280;4676;42.678;23.244;2023-03-14T05:05:36;94122.22;;;0.59;100.00
9277;BME280;4676;42.678;23.244;2023-03-14T05:08:03;94119.72;;;0.58;100.00
9277;BME280;4676;42.678;23.244;2023-03-14T05:10:30;94106.44;;;0.48;100.00
9277;BME280;4676;42.678;23.244;2023-03-14T05:12:56;94121.41;;;0.56;100.00
9277;BME280;4676;42.678;23.244;2023-03-14T05:15:23;94054.16;;;0.22;100.00
9277;BME280;4676;42.678;23.244;2023-03-14T05:17:52;94114.72;;;0.61;100.00
9277;BME280;4676;42.678;23.244;2023-03-14T05:20:19;94115.53;;;0.72;100.00
9277;BME280;4676;42.678;23.244;2023-03-14T05:22:47;94119.69;;;0.80;100.00
9277;BME280;4676;42.678;23.244;2023-03-14T05:25:14;94115.47;;;0.90;100.00
9277;BME280;4676;42.678;23.244;2023-03-14T05:27:40;94114.63;;;0.98;100.00
9277;BME280;4676;42.678;23.244;2023-03-14T05:30:09;94112.91;;;1.11;100.00
9277;BME280;4676;42.678;23.244;2023-03-14T05:32:35;94106.16;;;1.27;100.00
9277;BME280;4676;42.678;23.244;2023-03-14T05:35:04;94112.66;;;1.60;100.00
9277;BME280;4676;42.678;23.244;2023-03-14T05:37:31;94110.06;;;1.79;100.00
9277;BME280;4676;42.678;23.244;2023-03-14T05:39:58;94110.81;;;1.87;99.61
9277;BME280;4676;42.678;23.244;2023-03-14T05:42:24;94075.22;;;1.58;98.31
9277;BME280;4676;42.678;23.244;2023-03-14T05:44:51;94110.75;;;1.99;98.05
9277;BME280;4676;42.678;23.244;2023-03-14T05:47:18;94119.88;;;2.02;97.55
9277;BME280;4676;42.678;23.244;2023-03-14T05:49:44;94109.00;;;2.09;99.96
9277;BME280;4676;42.678;23.244;2023-03-14T05:52:12;94116.47;;;2.12;99.96
9277;BME280;4676;42.678;23.244;2023-03-14T05:54:39;94055.00;;;1.90;98.68
9277;BME280;4676;42.678;23.244;2023-03-14T05:57:06;94117.25;;;2.19;96.24
9277;BME280;4676;42.678;23.244;2023-03-14T05:59:33;94119.66;;;2.31;96.11
9277;BME280;4676;42.678;23.244;2023-03-14T06:01:59;94117.22;;;2.23;97.44
9277;BME280;4676;42.678;23.244;2023-03-14T06:04:26;94113.81;;;2.29;95.51
9277;BME280;4676;42.678;23.244;2023-03-14T06:06:53;94108.81;;;2.29;94.31
9277;BME280;4676;42.678;23.244;2023-03-14T06:09:21;94115.41;;;2.42;92.35
9277;BME280;4676;42.678;23.244;2023-03-14T06:11:48;94109.53;;;2.44;91.46
9277;BME280;4676;42.678;23.244;2023-03-14T06:14:15;94112.75;;;2.54;89.28
9277;BME280;4676;42.678;23.244;2023-03-14T06:16:42;94105.28;;;2.53;87.15
9277;BME280;4676;42.678;23.244;2023-03-14T06:19:08;94111.84;;;2.61;87.16
9277;BME280;4676;42.678;23.244;2023-03-14T06:21:35;94115.91;;;2.74;87.55
9277;BME280;4676;42.678;23.244;2023-03-14T06:24:02;94121.63;;;2.85;86.58
9277;BME280;4676;42.678;23.244;2023-03-14T06:26:31;94124.91;;;2.89;85.07
9277;BME280;4676;42.678;23.244;2023-03-14T06:28:58;94118.16;;;2.97;85.06
9277;BME280;4676;42.678;23.244;2023-03-14T06:31:28;94120.47;;;3.14;86.57
9277;BME280;4676;42.678;23.244;2023-03-14T06:33:55;94107.00;;;3.24;83.36
9277;BME280;4676;42.678;23.244;2023-03-14T06:36:22;94107.69;;;3.35;84.64
9277;BME280;4676;42.678;23.244;2023-03-14T06:38:49;94111.06;;;3.34;84.78
9277;BME280;4676;42.678;23.244;2023-03-14T06:41:15;94124.34;;;3.39;83.65
9277;BME280;4676;42.678;23.244;2023-03-14T06:43:44;94113.59;;;3.32;82.67
9277;BME280;4676;42.678;23.244;2023-03-14T06:46:10;94089.31;;;3.36;82.50
9277;BME280;4676;42.678;23.244;2023-03-14T06:48:37;94105.66;;;3.64;84.64
9277;BME280;4676;42.678;23.244;2023-03-14T06:51:05;94099.72;;;3.70;81.34
9277;BME280;4676;42.678;23.244;2023-03-14T06:53:34;94092.13;;;3.76;77.64
9277;BME280;4676;42.678;23.244;2023-03-14T06:56:01;94083.63;;;3.84;75.45
9277;BME280;4676;42.678;23.244;2023-03-14T06:58:27;94093.75;;;3.77;76.08
9277;BME280;4676;42.678;23.244;2023-03-14T07:00:55;94087.03;;;3.82;75.05
9277;BME280;4676;42.678;23.244;2023-03-14T07:03:22;94062.91;;;3.75;75.42
9277;BME280;4676;42.678;23.244;2023-03-14T07:05:50;94083.31;;;4.07;72.90
9277;BME280;4676;42.678;23.244;2023-03-14T07:08:16;94077.16;;;4.25;72.89
9277;BME280;4676;42.678;23.244;2023-03-14T07:10:43;94084.34;;;4.46;71.84
9277;BME280;4676;42.678;23.244;2023-03-14T07:13:10;94078.13;;;4.18;71.43
9277;BME280;4676;42.678;23.244;2023-03-14T07:15:36;94086.22;;;4.33;72.88
9277;BME280;4676;42.678;23.244;2023-03-14T07:18:05;94086.84;;;4.46;70.09
9277;BME280;4676;42.678;23.244;2023-03-14T07:20:31;94087.81;;;4.39;70.10
9277;BME280;4676;42.678;23.244;2023-03-14T07:22:58;94085.59;;;4.19;69.70
9277;BME280;4676;42.678;23.244;2023-03-14T07:25:28;94085.59;;;4.21;70.15
9277;BME280;4676;42.678;23.244;2023-03-14T07:27:54;94082.16;;;4.26;71.04
9277;BME280;4676;42.678;23.244;2023-03-14T07:30:21;94072.63;;;4.46;70.92
9277;BME280;4676;42.678;23.244;2023-03-14T07:32:48;94074.97;;;4.54;68.81
9277;BME280;4676;42.678;23.244;2023-03-14T07:35:16;94064.84;;;4.60;67.39
9277;BME280;4676;42.678;23.244;2023-03-14T07:37:42;94056.44;;;4.61;67.68
9277;BME280;4676;42.678;23.244;2023-03-14T07:40:10;94066.34;;;4.69;67.64
9277;BME280;4676;42.678;23.244;2023-03-14T07:42:40;94065.63;;;4.64;67.55
9277;BME280;4676;42.678;23.244;2023-03-14T07:45:08;94058.63;;;4.79;68.83
9277;BME280;4676;42.678;23.244;2023-03-14T07:47:35;94034.44;;;4.75;69.02
9277;BME280;4676;42.678;23.244;2023-03-14T07:50:03;94056.03;;;4.85;67.15
9277;BME280;4676;42.678;23.244;2023-03-14T07:52:31;94060.09;;;4.89;67.02
9277;BME280;4676;42.678;23.244;2023-03-14T07:54:58;94059.19;;;4.93;67.42
9277;BME280;4676;42.678;23.244;2023-03-14T07:57:25;94058.06;;;5.08;66.45
9277;BME280;4676;42.678;23.244;2023-03-14T07:59:51;94054.56;;;5.17;67.28
9277;BME280;4676;42.678;23.244;2023-03-14T08:02:18;94051.84;;;5.26;65.61
9277;BME280;4676;42.678;23.244;2023-03-14T08:04:47;94052.53;;;5.34;65.95
9277;BME280;4676;42.678;23.244;2023-03-14T08:07:14;94049.88;;;5.40;64.45
9277;BME280;4676;42.678;23.244;2023-03-14T08:09:42;94053.47;;;5.67;65.38
9277;BME280;4676;42.678;23.244;2023-03-14T08:12:09;94053.44;;;5.68;63.90
9277;BME280;4676;42.678;23.244;2023-03-14T08:14:36;94051.94;;;5.61;62.53
9277;BME280;4676;42.678;23.244;2023-03-14T08:17:02;94048.34;;;5.71;63.35
9277;BME280;4676;42.678;23.244;2023-03-14T08:19:30;94030.38;;;5.89;66.16
9277;BME280;4676;42.678;23.244;2023-03-14T08:21:57;94045.81;;;6.10;62.30
9277;BME280;4676;42.678;23.244;2023-03-14T08:24:23;94040.00;;;6.08;63.82
9277;BME280;4676;42.678;23.244;2023-03-14T08:26:51;94048.16;;;6.17;62.39
9277;BME280;4676;42.678;23.244;2023-03-14T08:29:18;94046.22;;;6.28;61.56
9277;BME280;4676;42.678;23.244;2023-03-14T08:31:45;94048.47;;;6.37;62.27
9277;BME280;4676;42.678;23.244;2023-03-14T08:34:14;94045.75;;;6.46;60.55
9277;BME280;4676;42.678;23.244;2023-03-14T08:36:40;94038.97;;;6.48;61.99
9277;BME280;4676;42.678;23.244;2023-03-14T08:39:07;94032.91;;;6.57;60.75
9277;BME280;4676;42.678;23.244;2023-03-14T08:41:34;94027.31;;;6.77;61.40
9277;BME280;4676;42.678;23.244;2023-03-14T08:44:07;94022.00;;;6.87;59.21
9277;BME280;4676;42.678;23.244;2023-03-14T08:46:34;94019.28;;;6.95;59.76
9277;BME280;4676;42.678;23.244;2023-03-14T08:49:00;94013.47;;;6.93;57.74
9277;BME280;4676;42.678;23.244;2023-03-14T08:51:27;94014.78;;;7.06;57.82
9277;BME280;4676;42.678;23.244;2023-03-14T08:53:54;94013.13;;;7.34;57.30
9277;BME280;4676;42.678;23.244;2023-03-14T08:56:21;94005.59;;;7.33;57.21
9277;BME280;4676;42.678;23.244;2023-03-14T08:58:47;94016.28;;;7.12;55.67
9277;BME280;4676;42.678;23.244;2023-03-14T09:01:16;93997.91;;;7.37;55.41
9277;BME280;4676;42.678;23.244;2023-03-14T09:03:44;93988.88;;;7.58;55.01
9277;BME280;4676;42.678;23.244;2023-03-14T09:06:12;93970.94;;;7.67;54.72
9277;BME280;4676;42.678;23.244;2023-03-14T09:08:39;93973.47;;;7.93;55.49
9277;BME280;4676;42.678;23.244;2023-03-14T09:11:07;93978.00;;;7.84;52.26
9277;BME280;4676;42.678;23.244;2023-03-14T09:13:33;93975.38;;;7.87;51.90
9277;BME280;4676;42.678;23.244;2023-03-14T09:16:00;93973.28;;;7.99;51.81
9277;BME280;4676;42.678;23.244;2023-03-14T09:18:28;93958.47;;;8.15;52.74
9277;BME280;4676;42.678;23.244;2023-03-14T09:20:55;93963.59;;;8.38;51.74
9277;BME280;4676;42.678;23.244;2023-03-14T09:23:22;93956.78;;;8.16;50.92
9277;BME280;4676;42.678;23.244;2023-03-14T09:25:54;93943.50;;;8.35;51.94
9277;BME280;4676;42.678;23.244;2023-03-14T09:28:21;93929.47;;;8.51;50.42
9277;BME280;4676;42.678;23.244;2023-03-14T09:30:47;93944.78;;;8.72;50.03
9277;BME280;4676;42.678;23.244;2023-03-14T09:33:14;93937.81;;;8.77;49.25
9277;BME280;4676;42.678;23.244;2023-03-14T09:35:43;93936.91;;;8.79;49.14
9277;BME280;4676;42.678;23.244;2023-03-14T09:38:09;93933.91;;;8.93;48.49
9277;BME280;4676;42.678;23.244;2023-03-14T09:40:37;93932.56;;;9.06;48.02
9277;BME280;4676;42.678;23.244;2023-03-14T09:43:05;93935.03;;;9.29;49.10
9277;BME280;4676;42.678;23.244;2023-03-14T09:45:34;93915.34;;;9.37;47.95
9277;BME280;4676;42.678;23.244;2023-03-14T09:48:03;93904.16;;;9.43;46.67
9277;BME280;4676;42.678;23.244;2023-03-14T09:50:33;93904.66;;;9.31;46.37
9277;BME280;4676;42.678;23.244;2023-03-14T09:53:08;93903.28;;;9.44;46.58
9277;BME280;4676;42.678;23.244;2023-03-14T09:55:35;93897.22;;;9.70;48.12
9277;BME280;4676;42.678;23.244;2023-03-14T09:58:09;93900.84;;;9.84;44.96
9277;BME280;4676;42.678;23.244;2023-03-14T10:00:38;93882.44;;;10.01;46.40
9277;BME280;4676;42.678;23.244;2023-03-14T10:03:21;93891.22;;;9.92;44.93
9277;BME280;4676;42.678;23.244;2023-03-14T10:05:48;93885.66;;;10.04;44.97
9277;BME280;4676;42.678;23.244;2023-03-14T10:08:16;93877.47;;;10.20;44.73
9277;BME280;4676;42.678;23.244;2023-03-14T10:10:43;93870.09;;;10.14;44.30
9277;BME280;4676;42.678;23.244;2023-03-14T10:13:15;93866.53;;;10.19;45.34
9277;BME280;4676;42.678;23.244;2023-03-14T10:15:47;93865.97;;;10.31;44.71
9277;BME280;4676;42.678;23.244;2023-03-14T10:18:15;93859.22;;;10.32;43.61
9277;BME280;4676;42.678;23.244;2023-03-14T10:20:43;93838.91;;;10.33;43.88
9277;BME280;4676;42.678;23.244;2023-03-14T10:23:27;93841.94;;;10.79;45.53
9277;BME280;4676;42.678;23.244;2023-03-14T10:26:07;93841.16;;;11.14;44.39
9277;BME280;4676;42.678;23.244;2023-03-14T10:28:39;93826.16;;;11.10;43.41
9277;BME280;4676;42.678;23.244;2023-03-14T10:31:06;93826.66;;;11.35;43.09
9277;BME280;4676;42.678;23.244;2023-03-14T10:33:34;93816.72;;;11.47;42.96
9277;BME280;4676;42.678;23.244;2023-03-14T10:36:03;93817.03;;;11.59;42.95
9277;BME280;4676;42.678;23.244;2023-03-14T10:38:33;93804.53;;;11.73;43.20
9277;BME280;4676;42.678;23.244;2023-03-14T10:41:01;93801.25;;;11.71;41.93
9277;BME280;4676;42.678;23.244;2023-03-14T10:43:31;93773.53;;;11.32;40.28
9277;BME280;4676;42.678;23.244;2023-03-14T10:46:01;93771.13;;;11.29;41.61
9277;BME280;4676;42.678;23.244;2023-03-14T10:48:33;93779.06;;;11.57;42.99
9277;BME280;4676;42.678;23.244;2023-03-14T10:51:05;93751.78;;;11.43;42.39
9277;BME280;4676;42.678;23.244;2023-03-14T10:53:44;93776.16;;;11.82;41.12
9277;BME280;4676;42.678;23.244;2023-03-14T10:56:13;93767.56;;;11.84;41.04
9277;BME280;4676;42.678;23.244;2023-03-14T10:58:42;93753.03;;;11.71;41.42
9277;BME280;4676;42.678;23.244;2023-03-14T11:01:24;93753.00;;;11.88;42.25
9277;BME280;4676;42.678;23.244;2023-03-14T11:03:57;93747.69;;;11.92;41.05
9277;BME280;4676;42.678;23.244;2023-03-14T11:06:31;93752.66;;;12.11;41.47
9277;BME280;4676;42.678;23.244;2023-03-14T11:09:06;93741.94;;;12.22;41.74
9277;BME280;4676;42.678;23.244;2023-03-14T11:11:39;93736.94;;;12.20;40.91
9277;BME280;4676;42.678;23.244;2023-03-14T11:14:16;93724.91;;;12.39;41.39
9277;BME280;4676;42.678;23.244;2023-03-14T11:16:53;93712.22;;;12.55;42.33
9277;BME280;4676;42.678;23.244;2023-03-14T11:19:36;93700.66;;;12.95;43.99
9277;BME280;4676;42.678;23.244;2023-03-14T11:22:12;93706.28;;;13.31;41.82
9277;BME280;4676;42.678;23.244;2023-03-14T11:24:54;93688.41;;;13.33;42.03
9277;BME280;4676;42.678;23.244;2023-03-14T11:27:26;93687.69;;;13.59;41.77
9277;BME280;4676;42.678;23.244;2023-03-14T11:30:00;93685.63;;;13.80;41.90
9277;BME280;4676;42.678;23.244;2023-03-14T11:32:38;93692.94;;;13.42;39.82
9277;BME280;4676;42.678;23.244;2023-03-14T11:35:16;93682.34;;;13.64;40.76
9277;BME280;4676;42.678;23.244;2023-03-14T11:37:46;93667.63;;;13.83;41.56
9277;BME280;4676;42.678;23.244;2023-03-14T11:40:21;93662.91;;;13.91;40.80
9277;BME280;4676;42.678;23.244;2023-03-14T11:42:54;93663.53;;;13.94;41.12
9277;BME280;4676;42.678;23.244;2023-03-14T11:45:26;93651.34;;;14.14;41.61
9277;BME280;4676;42.678;23.244;2023-03-14T11:48:02;93624.75;;;14.18;41.13
9277;BME280;4676;42.678;23.244;2023-03-14T11:50:31;93647.06;;;14.14;40.30
9277;BME280;4676;42.678;23.244;2023-03-14T11:53:03;93644.66;;;14.11;41.63
9277;BME280;4676;42.678;23.244;2023-03-14T11:55:34;93645.38;;;14.27;40.27
9277;BME280;4676;42.678;23.244;2023-03-14T11:58:09;93639.41;;;14.14;40.52
9277;BME280;4676;42.678;23.244;2023-03-14T12:00:40;93630.03;;;13.86;39.85
9277;BME280;4676;42.678;23.244;2023-03-14T12:03:11;93621.50;;;13.73;39.62
9277;BME280;4676;42.678;23.244;2023-03-14T12:05:48;93618.44;;;13.82;40.40
9277;BME280;4676;42.678;23.244;2023-03-14T12:08:25;93602.22;;;13.83;40.03
9277;BME280;4676;42.678;23.244;2023-03-14T12:11:00;93608.69;;;13.75;40.08
9277;BME280;4676;42.678;23.244;2023-03-14T12:13:28;93602.13;;;13.85;40.01
9277;BME280;4676;42.678;23.244;2023-03-14T12:15:57;93582.38;;;13.88;39.52
9277;BME280;4676;42.678;23.244;2023-03-14T12:18:28;93593.00;;;14.09;39.66
9277;BME280;4676;42.678;23.244;2023-03-14T12:20:57;93577.94;;;14.19;40.60
9277;BME280;4676;42.678;23.244;2023-03-14T12:23:26;93569.78;;;14.14;39.10
9277;BME280;4676;42.678;23.244;2023-03-14T12:26:16;93573.31;;;14.11;39.71
9277;BME280;4676;42.678;23.244;2023-03-14T12:28:48;93571.88;;;14.21;40.30
9277;BME280;4676;42.678;23.244;2023-03-14T12:31:45;93561.16;;;14.29;39.57
9277;BME280;4676;42.678;23.244;2023-03-14T12:34:32;93564.50;;;14.43;40.83
9277;BME280;4676;42.678;23.244;2023-03-14T12:37:22;93561.72;;;14.61;39.77
9277;BME280;4676;42.678;23.244;2023-03-14T12:40:02;93559.78;;;14.64;38.96
9277;BME280;4676;42.678;23.244;2023-03-14T12:42:40;93545.16;;;14.54;38.98
9277;BME280;4676;42.678;23.244;2023-03-14T12:45:23;93492.44;;;14.41;39.05
9277;BME280;4676;42.678;23.244;2023-03-14T12:48:08;93538.47;;;14.78;37.89
9277;BME280;4676;42.678;23.244;2023-03-14T12:50:39;93533.13;;;14.95;38.27
9277;BME280;4676;42.678;23.244;2023-03-14T12:53:35;93532.78;;;14.99;37.70
9277;BME280;4676;42.678;23.244;2023-03-14T12:56:21;93517.41;;;15.01;39.77
9277;BME280;4676;42.678;23.244;2023-03-14T12:59:20;93514.75;;;15.15;37.56
9277;BME280;4676;42.678;23.244;2023-03-14T13:01:55;93513.00;;;15.28;39.02
9277;BME280;4676;42.678;23.244;2023-03-14T13:04:28;93508.81;;;15.40;38.48
9277;BME280;4676;42.678;23.244;2023-03-14T13:06:57;93508.38;;;15.46;37.54
9277;BME280;4676;42.678;23.244;2023-03-14T13:12:18;93504.84;;;15.48;36.78
9277;BME280;4676;42.678;23.244;2023-03-14T13:14:48;93496.44;;;15.46;36.37
9277;BME280;4676;42.678;23.244;2023-03-14T13:17:22;93482.75;;;15.60;38.18
9277;BME280;4676;42.678;23.244;2023-03-14T13:19:53;93455.50;;;15.48;37.30
9277;BME280;4676;42.678;23.244;2023-03-14T13:22:24;93477.53;;;15.62;35.87
9277;BME280;4676;42.678;23.244;2023-03-14T13:24:59;93466.59;;;15.72;36.36
9277;BME280;4676;42.678;23.244;2023-03-14T13:27:30;93466.59;;;15.72;38.14
9277;BME280;4676;42.678;23.244;2023-03-14T13:29:59;93455.09;;;15.78;37.71
9277;BME280;4676;42.678;23.244;2023-03-14T13:32:30;93457.06;;;15.74;36.46